createdAt,value
2016-04-06T00:00:27.179Z,0
2016-04-06T00:01:27.197Z,0
2016-04-06T00:02:27.216Z,0
2016-04-06T00:03:27.265Z,0
2016-04-06T00:04:27.268Z,0
2016-04-06T00:05:27.270Z,0
2016-04-06T00:06:27.289Z,0
2016-04-06T00:07:26.573Z,0
2016-04-06T00:08:27.356Z,0
2016-04-06T00:09:27.375Z,0
2016-04-06T00:10:27.361Z,0
2016-04-06T00:11:27.364Z,0
2016-04-06T00:12:27.383Z,0
2016-04-06T00:13:27.432Z,0
2016-04-06T00:14:27.450Z,0
2016-04-06T00:15:27.453Z,0
2016-04-06T00:16:27.471Z,0
2016-04-06T00:17:27.474Z,0
2016-04-06T00:18:27.508Z,0
2016-04-06T00:19:27.511Z,0
2016-04-06T00:20:27.544Z,0
2016-04-06T00:21:27.563Z,0
2016-04-06T00:22:27.566Z,0
2016-04-06T00:23:27.585Z,0
2016-04-06T00:24:27.618Z,0
2016-04-06T00:25:27.636Z,0
2016-04-06T00:26:27.638Z,0
2016-04-06T00:27:27.657Z,0
2016-04-06T00:28:27.691Z,0
2016-04-06T00:29:27.710Z,0
2016-04-06T00:30:27.713Z,0
2016-04-06T00:31:27.747Z,0
2016-04-06T00:32:27.749Z,0
2016-04-06T00:33:27.768Z,0
2016-04-06T00:34:27.801Z,0
2016-04-06T00:35:27.820Z,0
2016-04-06T00:36:27.822Z,0
2016-04-06T00:37:27.840Z,0
2016-04-06T00:38:27.875Z,0
2016-04-06T00:39:27.893Z,0
2016-04-06T00:40:27.912Z,0
2016-04-06T00:41:27.914Z,0
2016-04-06T00:42:27.917Z,0
2016-04-06T00:43:27.950Z,0
2016-04-06T00:44:27.969Z,0
2016-04-06T00:45:28.003Z,0
2016-04-06T00:46:28.021Z,0
2016-04-06T00:47:28.040Z,0
2016-04-06T00:48:28.058Z,0
2016-04-06T00:49:28.061Z,0
2016-04-06T00:50:28.078Z,0
2016-04-06T00:51:28.097Z,0
2016-04-06T00:52:28.116Z,0
2016-04-06T00:53:27.977Z,0
2016-04-06T00:54:28.152Z,0
2016-04-06T00:55:28.154Z,0
2016-04-06T00:56:28.189Z,0
2016-04-06T00:57:28.222Z,0
2016-04-06T00:58:28.225Z,0
2016-04-06T00:59:28.228Z,0
2016-04-06T01:00:28.262Z,0
2016-04-06T01:01:28.296Z,0
2016-04-06T01:02:28.283Z,0
2016-04-06T01:03:28.379Z,0
2016-04-06T01:04:28.179Z,0
2016-04-06T01:05:28.368Z,0
2016-04-06T01:06:28.371Z,0
2016-04-06T01:07:28.359Z,0
2016-04-06T01:08:28.409Z,0
2016-04-06T01:09:28.427Z,0
2016-04-06T01:10:28.445Z,0
2016-04-06T01:11:28.464Z,0
2016-04-06T01:12:28.466Z,0
2016-04-06T01:13:28.500Z,0
2016-04-06T01:14:28.503Z,0
2016-04-06T01:15:28.537Z,0
2016-04-06T01:16:28.524Z,0
2016-04-06T01:17:28.573Z,0
2016-04-06T01:18:28.608Z,0
2016-04-06T01:19:28.578Z,0
2016-04-06T01:20:28.613Z,0
2016-04-06T01:21:28.616Z,0
2016-04-06T01:22:27.899Z,0
2016-04-06T01:23:28.683Z,0
2016-04-06T01:24:28.685Z,0
2016-04-06T01:25:28.689Z,0
2016-04-06T01:26:28.754Z,0
2016-04-06T01:27:28.725Z,0
2016-04-06T01:28:28.760Z,0
2016-04-06T01:29:28.777Z,0
2016-04-06T01:30:28.780Z,0
2016-04-06T01:31:28.782Z,0
2016-04-06T01:32:28.816Z,0
2016-04-06T01:33:28.850Z,0
2016-04-06T01:34:28.868Z,0
2016-04-06T01:35:28.871Z,0
2016-04-06T01:36:28.890Z,0
2016-04-06T01:37:28.159Z,0
2016-04-06T01:38:28.927Z,0
2016-04-06T01:39:28.945Z,0
2016-04-06T01:40:28.979Z,0
2016-04-06T01:41:28.981Z,0
2016-04-06T01:42:29.031Z,0
2016-04-06T01:43:29.003Z,0
2016-04-06T01:44:29.053Z,0
2016-04-06T01:45:29.056Z,0
2016-04-06T01:46:29.073Z,0
2016-04-06T01:47:29.076Z,0
2016-04-06T01:48:29.125Z,0
2016-04-06T01:49:29.112Z,0
2016-04-06T01:50:29.130Z,0
2016-04-06T01:51:29.164Z,0
2016-04-06T01:52:29.167Z,0
2016-04-06T01:53:29.185Z,0
2016-04-06T01:54:29.205Z,0
2016-04-06T01:55:29.222Z,0
2016-04-06T01:56:29.241Z,0
2016-04-06T01:57:29.259Z,0
2016-04-06T01:58:29.277Z,0
2016-04-06T01:59:29.280Z,0
2016-04-06T02:00:29.329Z,0
2016-04-06T02:01:29.363Z,0
2016-04-06T02:02:29.381Z,0
2016-04-06T02:03:29.368Z,0
2016-04-06T02:04:29.387Z,0
2016-04-06T02:05:29.405Z,0
2016-04-06T02:06:29.408Z,0
2016-04-06T02:07:29.442Z,0
2016-04-06T02:08:29.656Z,0
2016-04-06T02:09:29.471Z,0
2016-04-06T02:10:29.490Z,0
2016-04-06T02:11:29.493Z,0
2016-04-06T02:12:28.776Z,0
2016-04-06T02:13:29.545Z,0
2016-04-06T02:14:29.579Z,0
2016-04-06T02:15:29.566Z,0
2016-04-06T02:16:29.585Z,0
2016-04-06T02:17:29.618Z,0
2016-04-06T02:18:29.621Z,0
2016-04-06T02:19:30.061Z,0
2016-04-06T02:20:29.517Z,0
2016-04-06T02:21:29.676Z,0
2016-04-06T02:22:29.695Z,0
2016-04-06T02:23:29.713Z,0
2016-04-06T02:24:29.731Z,0
2016-04-06T02:25:29.749Z,0
2016-04-06T02:26:29.767Z,0
2016-04-06T02:27:29.786Z,0
2016-04-06T02:28:29.803Z,0
2016-04-06T02:29:29.838Z,0
2016-04-06T02:30:29.856Z,0
2016-04-06T02:31:29.844Z,0
2016-04-06T02:32:29.878Z,0
2016-04-06T02:33:29.881Z,0
2016-04-06T02:34:29.945Z,0
2016-04-06T02:35:29.933Z,0
2016-04-06T02:36:29.966Z,0
2016-04-06T02:37:29.797Z,0
2016-04-06T02:38:29.988Z,0
2016-04-06T02:39:30.005Z,0
2016-04-06T02:40:30.008Z,0
2016-04-06T02:41:30.042Z,0
2016-04-06T02:42:30.044Z,0
2016-04-06T02:43:30.063Z,0
2016-04-06T02:44:29.925Z,0
2016-04-06T02:45:30.100Z,0
2016-04-06T02:46:30.118Z,0
2016-04-06T02:47:30.152Z,0
2016-04-06T02:48:29.404Z,0
2016-04-06T02:49:30.142Z,0
2016-04-06T02:50:30.191Z,0
2016-04-06T02:51:30.210Z,0
2016-04-06T02:52:30.229Z,0
2016-04-06T02:53:30.231Z,0
2016-04-06T02:54:30.265Z,0
2016-04-06T02:55:30.283Z,0
2016-04-06T02:56:30.286Z,0
2016-04-06T02:57:30.164Z,0
2016-04-06T02:58:30.353Z,0
2016-04-06T02:59:30.325Z,0
2016-04-06T03:00:30.375Z,0
2016-04-06T03:01:30.378Z,0
2016-04-06T03:02:30.412Z,0
2016-04-06T03:03:30.414Z,0
2016-04-06T03:04:30.604Z,0
2016-04-06T03:05:30.451Z,0
2016-04-06T03:06:30.484Z,0
2016-04-06T03:07:30.487Z,0
2016-04-06T03:08:30.489Z,0
2016-04-06T03:09:30.508Z,0
2016-04-06T03:10:30.448Z,0
2016-04-06T03:11:30.576Z,0
2016-04-06T03:12:30.594Z,0
2016-04-06T03:13:30.597Z,0
2016-04-06T03:14:30.616Z,0
2016-04-06T03:15:30.618Z,0
2016-04-06T03:16:30.652Z,0
2016-04-06T03:17:30.498Z,0
2016-04-06T03:18:30.688Z,0
2016-04-06T03:19:30.723Z,0
2016-04-06T03:20:30.710Z,0
2016-04-06T03:21:30.729Z,0
2016-04-06T03:22:30.762Z,0
2016-04-06T03:23:30.765Z,0
2016-04-06T03:24:30.782Z,0
2016-04-06T03:25:30.801Z,0
2016-04-06T03:26:30.803Z,0
2016-04-06T03:27:30.837Z,0
2016-04-06T03:28:30.840Z,0
2016-04-06T03:29:30.874Z,0
2016-04-06T03:30:30.878Z,0
2016-04-06T03:31:30.895Z,0
2016-04-06T03:32:30.164Z,0
2016-04-06T03:33:30.948Z,0
2016-04-06T03:34:30.998Z,0
2016-04-06T03:35:30.969Z,0
2016-04-06T03:36:30.987Z,0
2016-04-06T03:37:31.005Z,0
2016-04-06T03:38:31.024Z,0
2016-04-06T03:39:31.041Z,0
2016-04-06T03:40:31.060Z,0
2016-04-06T03:41:31.078Z,0
2016-04-06T03:42:31.097Z,0
2016-04-06T03:43:31.116Z,0
2016-04-06T03:44:31.133Z,0
2016-04-06T03:45:31.168Z,0
2016-04-06T03:46:31.138Z,0
2016-04-06T03:47:31.188Z,0
2016-04-06T03:48:31.191Z,0
2016-04-06T03:49:31.272Z,0
2016-04-06T03:50:31.227Z,0
2016-04-06T03:51:31.246Z,0
2016-04-06T03:52:30.515Z,0
2016-04-06T03:53:31.282Z,0
2016-04-06T03:54:31.317Z,0
2016-04-06T03:55:31.320Z,0
2016-04-06T03:56:31.337Z,0
2016-04-06T03:57:31.371Z,0
2016-04-06T03:58:31.358Z,0
2016-04-06T03:59:31.393Z,0
2016-04-06T04:00:31.395Z,0
2016-04-06T04:01:31.414Z,0
2016-04-06T04:02:31.432Z,0
2016-04-06T04:03:31.466Z,0
2016-04-06T04:04:31.672Z,0
2016-04-06T04:05:31.486Z,0
2016-04-06T04:06:31.505Z,0
2016-04-06T04:07:31.523Z,0
2016-04-06T04:08:31.542Z,0
2016-04-06T04:09:31.561Z,0
2016-04-06T04:10:31.594Z,0
2016-04-06T04:11:31.597Z,0
2016-04-06T04:12:31.615Z,0
2016-04-06T04:13:31.633Z,0
2016-04-06T04:14:31.636Z,0
2016-04-06T04:15:31.686Z,0
2016-04-06T04:16:31.532Z,0
2016-04-06T04:17:31.691Z,0
2016-04-06T04:18:31.710Z,0
2016-04-06T04:19:31.774Z,4
2016-04-06T04:20:31.762Z,4
2016-04-06T04:21:31.765Z,4
2016-04-06T04:22:31.767Z,0
2016-04-06T04:23:31.816Z,4
2016-04-06T04:24:31.819Z,4
2016-04-06T04:25:31.837Z,4
2016-04-06T04:26:31.840Z,8
2016-04-06T04:27:31.859Z,8
2016-04-06T04:28:31.892Z,8
2016-04-06T04:29:31.912Z,12
2016-04-06T04:30:31.914Z,8
2016-04-06T04:31:31.932Z,12
2016-04-06T04:32:31.965Z,12
2016-04-06T04:33:31.968Z,16
2016-04-06T04:34:31.986Z,16
2016-04-06T04:35:32.005Z,16
2016-04-06T04:36:32.023Z,16
2016-04-06T04:37:32.057Z,20
2016-04-06T04:38:32.044Z,20
2016-04-06T04:39:32.078Z,24
2016-04-06T04:40:32.097Z,24
2016-04-06T04:41:32.099Z,28
2016-04-06T04:42:31.383Z,28
2016-04-06T04:43:32.152Z,32
2016-04-06T04:44:32.154Z,40
2016-04-06T04:45:32.172Z,48
2016-04-06T04:46:32.191Z,60
2016-04-06T04:47:32.224Z,76
2016-04-06T04:48:32.228Z,92
2016-04-06T04:49:32.261Z,92
2016-04-06T04:50:32.248Z,84
2016-04-06T04:51:32.282Z,76
2016-04-06T04:52:32.301Z,80
2016-04-06T04:53:32.318Z,100
2016-04-06T04:54:32.354Z,128
2016-04-06T04:55:32.371Z,148
2016-04-06T04:56:32.359Z,172
2016-04-06T04:57:32.377Z,204
2016-04-06T04:58:32.395Z,216
2016-04-06T04:59:32.413Z,220
2016-04-06T05:00:32.432Z,236
2016-04-06T05:01:32.450Z,256
2016-04-06T05:02:32.468Z,280
2016-04-06T05:03:32.486Z,292
2016-04-06T05:04:32.333Z,292
2016-04-06T05:05:32.553Z,292
2016-04-06T05:06:32.542Z,304
2016-04-06T05:07:32.560Z,312
2016-04-06T05:08:32.578Z,300
2016-04-06T05:09:31.831Z,276
2016-04-06T05:10:32.615Z,260
2016-04-06T05:11:32.617Z,244
2016-04-06T05:12:32.652Z,248
2016-04-06T05:13:32.655Z,244
2016-04-06T05:14:32.703Z,248
2016-04-06T05:15:32.675Z,256
2016-04-06T05:16:32.708Z,260
2016-04-06T05:17:32.711Z,268
2016-04-06T05:18:32.730Z,264
2016-04-06T05:19:32.764Z,264
2016-04-06T05:20:32.766Z,268
2016-04-06T05:21:32.785Z,268
2016-04-06T05:22:32.819Z,276
2016-04-06T05:23:32.837Z,280
2016-04-06T05:24:32.855Z,272
2016-04-06T05:25:32.858Z,260
2016-04-06T05:26:32.876Z,248
2016-04-06T05:27:32.895Z,244
2016-04-06T05:28:32.924Z,244
2016-04-06T05:29:32.926Z,264
2016-04-06T05:30:32.960Z,292
2016-04-06T05:31:32.963Z,344
2016-04-06T05:32:32.998Z,412
2016-04-06T05:33:33.000Z,516
2016-04-06T05:34:33.003Z,616
2016-04-06T05:35:33.037Z,700
2016-04-06T05:36:33.055Z,800
2016-04-06T05:37:33.073Z,928
2016-04-06T05:38:33.091Z,996
2016-04-06T05:39:33.110Z,996
2016-04-06T05:40:33.128Z,904
2016-04-06T05:41:33.147Z,776
2016-04-06T05:42:33.181Z,684
2016-04-06T05:43:33.167Z,636
2016-04-06T05:44:33.186Z,620
2016-04-06T05:45:33.204Z,644
2016-04-06T05:46:33.222Z,676
2016-04-06T05:47:33.225Z,736
2016-04-06T05:48:33.258Z,824
2016-04-06T05:49:33.261Z,868
2016-04-06T05:50:33.296Z,844
2016-04-06T05:51:33.298Z,784
2016-04-06T05:52:33.332Z,708
2016-04-06T05:53:33.335Z,640
2016-04-06T05:54:33.353Z,584
2016-04-06T05:55:33.371Z,536
2016-04-06T05:56:33.405Z,580
2016-04-06T05:57:33.423Z,628
2016-04-06T05:58:33.536Z,628
2016-04-06T05:59:33.446Z,692
2016-04-06T06:00:33.478Z,876
2016-04-06T06:01:33.466Z,1084
2016-04-06T06:02:33.515Z,1224
2016-04-06T06:03:33.529Z,1304
2016-04-06T06:04:33.593Z,1300
2016-04-06T06:05:33.641Z,1304
2016-04-06T06:06:33.736Z,1224
2016-04-06T06:07:33.660Z,1052
2016-04-06T06:08:33.856Z,876
2016-04-06T06:09:33.906Z,940
2016-04-06T06:10:33.925Z,1088
2016-04-06T06:11:33.959Z,1148
2016-04-06T06:12:33.838Z,1224
2016-04-06T06:13:34.042Z,1332
2016-04-06T06:14:34.050Z,1296
2016-04-06T06:15:34.074Z,1224
2016-04-06T06:16:34.098Z,1252
2016-04-06T06:17:34.106Z,1352
2016-04-06T06:18:34.145Z,1508
2016-04-06T06:19:34.165Z,1552
2016-04-06T06:20:34.170Z,1532
2016-04-06T06:21:34.034Z,1584
2016-04-06T06:22:34.211Z,1680
2016-04-06T06:23:34.091Z,1820
2016-04-06T06:24:34.251Z,1868
2016-04-06T06:25:34.271Z,1824
2016-04-06T06:26:34.289Z,1648
2016-04-06T06:27:34.308Z,1420
2016-04-06T06:28:34.343Z,1292
2016-04-06T06:29:34.346Z,1208
2016-04-06T06:30:34.396Z,1116
2016-04-06T06:31:34.384Z,1056
2016-04-06T06:32:34.402Z,1036
2016-04-06T06:33:34.405Z,972
2016-04-06T06:34:34.438Z,960
2016-04-06T06:35:33.707Z,1084
2016-04-06T06:36:34.460Z,1296
2016-04-06T06:37:34.510Z,1556
2016-04-06T06:38:34.512Z,1848
2016-04-06T06:39:34.531Z,2088
2016-04-06T06:40:34.518Z,2260
2016-04-06T06:41:34.552Z,2412
2016-04-06T06:42:34.585Z,2524
2016-04-06T06:43:34.604Z,2720
2016-04-06T06:44:34.623Z,2900
2016-04-06T06:45:34.610Z,3160
2016-04-06T06:46:34.643Z,3344
2016-04-06T06:47:34.645Z,3388
2016-04-06T06:48:34.680Z,3460
2016-04-06T06:49:34.542Z,3596
2016-04-06T06:50:34.732Z,3696
2016-04-06T06:51:34.734Z,3692
2016-04-06T06:52:34.753Z,3680
2016-04-06T06:53:34.787Z,3688
2016-04-06T06:54:34.774Z,4456
2016-04-06T06:55:34.824Z,3984
2016-04-06T06:56:34.827Z,4464
2016-04-06T06:57:34.845Z,4356
2016-04-06T06:58:34.878Z,5016
2016-04-06T06:59:34.880Z,4192
2016-04-06T07:00:34.883Z,4504
2016-04-06T07:01:34.903Z,4528
2016-04-06T07:02:34.921Z,4452
2016-04-06T07:03:34.939Z,4116
2016-04-06T07:04:34.957Z,3644
2016-04-06T07:05:34.991Z,3384
2016-04-06T07:06:35.010Z,3256
2016-04-06T07:07:35.012Z,3136
2016-04-06T07:08:35.046Z,3096
2016-04-06T07:09:35.065Z,3104
2016-04-06T07:10:35.052Z,3012
2016-04-06T07:11:35.085Z,2880
2016-04-06T07:12:35.120Z,2856
2016-04-06T07:13:35.106Z,2876
2016-04-06T07:14:35.140Z,3028
2016-04-06T07:15:35.158Z,3028
2016-04-06T07:16:35.176Z,2956
2016-04-06T07:17:35.195Z,3120
2016-04-06T07:18:35.214Z,3120
2016-04-06T07:19:35.200Z,2768
2016-04-06T07:20:35.267Z,2284
2016-04-06T07:21:35.269Z,2028
2016-04-06T07:22:35.287Z,2316
2016-04-06T07:23:35.321Z,2936
2016-04-06T07:24:35.371Z,3396
2016-04-06T07:25:35.389Z,3648
2016-04-06T07:26:35.360Z,3888
2016-04-06T07:27:35.378Z,3900
2016-04-06T07:28:35.381Z,4080
2016-04-06T07:29:35.399Z,4692
2016-04-06T07:30:35.433Z,5216
2016-04-06T07:31:35.452Z,5360
2016-04-06T07:32:35.469Z,5304
2016-04-06T07:33:35.473Z,5116
2016-04-06T07:34:35.491Z,4908
2016-04-06T07:35:35.510Z,4716
2016-04-06T07:36:35.574Z,4620
2016-04-06T07:37:35.562Z,4620
2016-04-06T07:38:35.580Z,4540
2016-04-06T07:39:35.583Z,4168
2016-04-06T07:40:35.632Z,3628
2016-04-06T07:41:35.619Z,3308
2016-04-06T07:42:35.638Z,3336
2016-04-06T07:43:35.671Z,3700
2016-04-06T07:44:35.674Z,4456
2016-04-06T07:45:35.724Z,5120
2016-04-06T07:46:35.712Z,5388
2016-04-06T07:47:35.729Z,5632
2016-04-06T07:48:35.763Z,5864
2016-04-06T07:49:35.782Z,5912
2016-04-06T07:50:35.800Z,6628
2016-04-06T07:51:35.818Z,6376
2016-04-06T07:52:35.836Z,5880
2016-04-06T07:53:35.839Z,6160
2016-04-06T07:54:35.858Z,6496
2016-04-06T07:55:35.125Z,6764
2016-04-06T07:56:35.894Z,6840
2016-04-06T07:57:35.928Z,6480
2016-04-06T07:58:35.931Z,6000
2016-04-06T07:59:35.949Z,4856
2016-04-06T08:00:35.983Z,4696
2016-04-06T08:01:35.985Z,4912
2016-04-06T08:02:36.020Z,5148
2016-04-06T08:03:36.053Z,5572
2016-04-06T08:04:36.071Z,6068
2016-04-06T08:05:36.058Z,6116
2016-04-06T08:06:36.093Z,6092
2016-04-06T08:07:36.111Z,5332
2016-04-06T08:08:36.130Z,4984
2016-04-06T08:09:36.148Z,5340
2016-04-06T08:10:36.041Z,5876
2016-04-06T08:11:36.185Z,6396
2016-04-06T08:12:36.218Z,6792
2016-04-06T08:13:36.221Z,8564
2016-04-06T08:14:36.240Z,8016
2016-04-06T08:15:36.273Z,8256
2016-04-06T08:16:36.292Z,9220
2016-04-06T08:17:36.309Z,8924
2016-04-06T08:18:36.328Z,9088
2016-04-06T08:19:36.346Z,8800
2016-04-06T08:20:36.489Z,8448
2016-04-06T08:21:36.351Z,8068
2016-04-06T08:22:36.448Z,7904
2016-04-06T08:23:36.420Z,7908
2016-04-06T08:24:36.454Z,7564
2016-04-06T08:25:36.487Z,7756
2016-04-06T08:26:36.537Z,7660
2016-04-06T08:27:36.524Z,7684
2016-04-06T08:28:36.590Z,7684
2016-04-06T08:29:36.592Z,7144
2016-04-06T08:30:36.595Z,6700
2016-04-06T08:31:36.597Z,7428
2016-04-06T08:32:36.631Z,7592
2016-04-06T08:33:36.588Z,6220
2016-04-06T08:34:36.637Z,8488
2016-04-06T08:35:36.687Z,9072
2016-04-06T08:36:36.658Z,7752
2016-04-06T08:37:36.707Z,9072
2016-04-06T08:38:36.710Z,9104
2016-04-06T08:39:36.729Z,9212
2016-04-06T08:40:36.747Z,8152
2016-04-06T08:41:36.765Z,7424
2016-04-06T08:42:36.799Z,8080
2016-04-06T08:43:36.818Z,9000
2016-04-06T08:44:36.821Z,8532
2016-04-06T08:45:36.838Z,7776
2016-04-06T08:46:36.873Z,9340
2016-04-06T08:47:36.891Z,7640
2016-04-06T08:48:36.893Z,9716
2016-04-06T08:49:36.926Z,9008
2016-04-06T08:50:36.899Z,9512
2016-04-06T08:51:37.011Z,7556
2016-04-06T08:52:36.998Z,6780
2016-04-06T08:53:36.985Z,6504
2016-04-06T08:54:37.034Z,6684
2016-04-06T08:55:37.037Z,6904
2016-04-06T08:56:37.071Z,7248
2016-04-06T08:57:37.073Z,8896
2016-04-06T08:58:37.092Z,6708
2016-04-06T08:59:37.110Z,6760
2016-04-06T09:00:37.161Z,8696
2016-04-06T09:01:37.163Z,8684
2016-04-06T09:02:37.197Z,7344
2016-04-06T09:03:37.199Z,8248
2016-04-06T09:04:37.233Z,7344
2016-04-06T09:05:37.283Z,7248
2016-04-06T09:06:37.270Z,7160
2016-04-06T09:07:37.272Z,7004
2016-04-06T09:08:37.307Z,7048
2016-04-06T09:09:37.340Z,8844
2016-04-06T09:10:37.343Z,7284
2016-04-06T09:11:37.361Z,9520
2016-04-06T09:12:37.395Z,9532
2016-04-06T09:13:37.399Z,8320
2016-04-06T09:14:37.432Z,7644
2016-04-06T09:15:37.450Z,7332
2016-04-06T09:16:37.468Z,7652
2016-04-06T09:17:37.487Z,8996
2016-04-06T09:18:37.505Z,9720
2016-04-06T09:19:37.539Z,7568
2016-04-06T09:20:37.605Z,7548
2016-04-06T09:21:37.607Z,7448
2016-04-06T09:22:37.625Z,8616
2016-04-06T09:23:37.629Z,9116
2016-04-06T09:24:37.662Z,7100
2016-04-06T09:25:37.665Z,6720
2016-04-06T09:26:37.683Z,7248
2016-04-06T09:27:37.686Z,5972
2016-04-06T09:28:37.704Z,5728
2016-04-06T09:29:37.722Z,5408
2016-04-06T09:30:37.772Z,4952
2016-04-06T09:31:37.790Z,4804
2016-04-06T09:32:37.809Z,4880
2016-04-06T09:33:37.811Z,4940
2016-04-06T09:34:37.830Z,4992
2016-04-06T09:35:37.880Z,5092
2016-04-06T09:36:37.882Z,5100
2016-04-06T09:37:37.900Z,5020
2016-04-06T09:38:37.919Z,5056
2016-04-06T09:39:37.936Z,7364
2016-04-06T09:40:37.955Z,6112
2016-04-06T09:41:37.974Z,5220
2016-04-06T09:42:38.012Z,5240
2016-04-06T09:43:37.890Z,5188
2016-04-06T09:44:38.049Z,5180
2016-04-06T09:45:38.044Z,5248
2016-04-06T09:46:38.000Z,5332
2016-04-06T09:47:38.222Z,5416
2016-04-06T09:48:38.130Z,5572
2016-04-06T09:49:38.134Z,5716
2016-04-06T09:50:38.136Z,5868
2016-04-06T09:51:38.171Z,6136
2016-04-06T09:52:38.204Z,6460
2016-04-06T09:53:38.207Z,6852
2016-04-06T09:54:38.241Z,6928
2016-04-06T09:55:38.243Z,6712
2016-04-06T09:56:38.277Z,6616
2016-04-06T09:57:38.280Z,6808
2016-04-06T09:58:38.314Z,7180
2016-04-06T09:59:38.317Z,7464
2016-04-06T10:00:38.350Z,7492
2016-04-06T10:01:38.385Z,7500
2016-04-06T10:02:38.387Z,7700
2016-04-06T10:03:38.421Z,7808
2016-04-06T10:04:38.424Z,7636
2016-04-06T10:05:38.458Z,7136
2016-04-06T10:06:38.492Z,6876
2016-04-06T10:07:38.495Z,6824
2016-04-06T10:08:38.512Z,6732
2016-04-06T10:09:38.531Z,8452
2016-04-06T10:10:38.565Z,8940
2016-04-06T10:11:38.567Z,5992
2016-04-06T10:12:38.664Z,5824
2016-04-06T10:13:38.620Z,5796
2016-04-06T10:14:38.638Z,5800
2016-04-06T10:15:38.641Z,8172
2016-04-06T10:16:38.675Z,9008
2016-04-06T10:17:38.694Z,9260
2016-04-06T10:18:38.727Z,9240
2016-04-06T10:19:38.730Z,9408
2016-04-06T10:20:38.749Z,9260
2016-04-06T10:21:38.782Z,9324
2016-04-06T10:22:38.785Z,7432
2016-04-06T10:23:38.819Z,8808
2016-04-06T10:24:38.837Z,9280
2016-04-06T10:25:38.855Z,9580
2016-04-06T10:26:38.890Z,9624
2016-04-06T10:27:38.893Z,9096
2016-04-06T10:28:38.910Z,6344
2016-04-06T10:29:38.928Z,6380
2016-04-06T10:30:38.979Z,6408
2016-04-06T10:31:38.981Z,7848
2016-04-06T10:32:39.015Z,7828
2016-04-06T10:33:39.001Z,7584
2016-04-06T10:34:39.052Z,8684
2016-04-06T10:35:39.070Z,8828
2016-04-06T10:36:39.103Z,7272
2016-04-06T10:37:39.090Z,7152
2016-04-06T10:38:39.125Z,6964
2016-04-06T10:39:39.175Z,6776
2016-04-06T10:40:39.177Z,9472
2016-04-06T10:41:39.180Z,7608
2016-04-06T10:42:39.214Z,6668
2016-04-06T10:43:39.216Z,6900
2016-04-06T10:44:39.250Z,7556
2016-04-06T10:45:39.269Z,9684
2016-04-06T10:46:39.287Z,8400
2016-04-06T10:47:39.306Z,6920
2016-04-06T10:48:39.324Z,6580
2016-04-06T10:49:39.357Z,6244
2016-04-06T10:50:39.360Z,6104
2016-04-06T10:51:39.410Z,6384
2016-04-06T10:52:39.428Z,9348
2016-04-06T10:53:39.430Z,7384
2016-04-06T10:54:39.449Z,7640
2016-04-06T10:55:39.374Z,7504
2016-04-06T10:56:39.220Z,6980
2016-04-06T10:57:39.535Z,7048
2016-04-06T10:58:39.554Z,6824
2016-04-06T10:59:39.571Z,6408
2016-04-06T11:00:39.590Z,6128
2016-04-06T11:01:39.592Z,5764
2016-04-06T11:02:39.612Z,5704
2016-04-06T11:03:39.629Z,5812
2016-04-06T11:04:39.662Z,6956
2016-04-06T11:05:53.744Z,8744
2016-04-06T11:06:39.560Z,8936
2016-04-06T11:07:38.984Z,9012
2016-04-06T11:08:39.736Z,9084
2016-04-06T11:09:39.771Z,9452
2016-04-06T11:10:39.773Z,9112
2016-04-06T11:11:39.806Z,7176
2016-04-06T11:12:39.826Z,7260
2016-04-06T11:13:39.845Z,10104
2016-04-06T11:14:39.862Z,9620
2016-04-06T11:15:39.896Z,9480
2016-04-06T11:16:39.742Z,9632
2016-04-06T11:17:39.933Z,7608
2016-04-06T11:18:39.810Z,6900
2016-04-06T11:19:39.953Z,6724
2016-04-06T11:20:40.003Z,6968
2016-04-06T11:21:40.006Z,9816
2016-04-06T11:22:40.040Z,9888
2016-04-06T11:23:40.074Z,9920
2016-04-06T11:24:40.061Z,9928
2016-04-06T11:25:40.094Z,10020
2016-04-06T11:26:40.113Z,9792
2016-04-06T11:27:39.975Z,7576
2016-04-06T11:28:40.149Z,10984
2016-04-06T11:29:40.168Z,8664
2016-04-06T11:30:40.186Z,11228
2016-04-06T11:31:40.220Z,7924
2016-04-06T11:32:40.254Z,8008
2016-04-06T11:33:40.288Z,8408
2016-04-06T11:34:40.307Z,8624
2016-04-06T11:35:40.325Z,8072
2016-04-06T11:36:40.312Z,7660
2016-04-06T11:37:40.346Z,7520
2016-04-06T11:38:40.379Z,7680
2016-04-06T11:39:40.382Z,11156
2016-04-06T11:40:40.416Z,7956
2016-04-06T11:41:40.451Z,10936
2016-04-06T11:42:40.453Z,10908
2016-04-06T11:43:40.487Z,11024
2016-04-06T11:44:40.489Z,11248
2016-04-06T11:45:40.508Z,11308
2016-04-06T11:46:40.542Z,11580
2016-04-06T11:47:40.576Z,8968
2016-04-06T11:48:40.578Z,11128
2016-04-06T11:49:40.644Z,11152
2016-04-06T11:50:40.631Z,11064
2016-04-06T11:51:40.664Z,11340
2016-04-06T11:52:40.667Z,8704
2016-04-06T11:53:40.701Z,7924
2016-04-06T11:54:39.954Z,7600
2016-04-06T11:55:40.754Z,7448
2016-04-06T11:56:40.757Z,7760
2016-04-06T11:57:54.853Z,7272
2016-04-06T11:58:40.808Z,10624
2016-04-06T11:59:40.858Z,10756
2016-04-06T12:00:40.876Z,8124
2016-04-06T12:01:40.863Z,7692
2016-04-06T12:02:40.898Z,9032
2016-04-06T12:03:40.901Z,7180
2016-04-06T12:04:40.949Z,6976
2016-04-06T12:05:40.968Z,10536
2016-04-06T12:06:40.236Z,6184
2016-04-06T12:07:40.840Z,5580
2016-04-06T12:08:41.014Z,4892
2016-04-06T12:09:41.047Z,4220
2016-04-06T12:10:41.066Z,3648
2016-04-06T12:11:40.366Z,3300
2016-04-06T12:12:41.119Z,3124
2016-04-06T12:13:41.121Z,3084
2016-04-06T12:14:41.171Z,3116
2016-04-06T12:15:41.174Z,3208
2016-04-06T12:16:41.207Z,3380
2016-04-06T12:17:41.212Z,3660
2016-04-06T12:18:41.246Z,4136
2016-04-06T12:19:41.249Z,4872
2016-04-06T12:20:41.298Z,5880
2016-04-06T12:21:41.301Z,6360
2016-04-06T12:22:41.319Z,6788
2016-04-06T12:23:41.353Z,6940
2016-04-06T12:24:41.356Z,7088
2016-04-06T12:25:41.406Z,7684
2016-04-06T12:26:41.408Z,8860
2016-04-06T12:27:41.411Z,7232
2016-04-06T12:28:41.444Z,6720
2016-04-06T12:29:41.463Z,6296
2016-04-06T12:30:40.794Z,5948
2016-04-06T12:31:41.516Z,5824
2016-04-06T12:32:41.533Z,5776
2016-04-06T12:33:41.537Z,5728
2016-04-06T12:34:41.602Z,5644
2016-04-06T12:35:41.604Z,5548
2016-04-06T12:36:41.935Z,5744
2016-04-06T12:37:41.625Z,6024
2016-04-06T12:38:41.674Z,6304
2016-04-06T12:39:41.678Z,6584
2016-04-06T12:40:41.712Z,6976
2016-04-06T12:41:41.730Z,7752
2016-04-06T12:42:41.748Z,7836
2016-04-06T12:43:41.766Z,7656
2016-04-06T12:44:41.801Z,7356
2016-04-06T12:45:41.804Z,6984
2016-04-06T12:46:41.837Z,6612
2016-04-06T12:47:41.855Z,6264
2016-04-06T12:48:41.890Z,6120
2016-04-06T12:49:41.876Z,6568
2016-04-06T12:50:41.909Z,7012
2016-04-06T12:51:41.928Z,8248
2016-04-06T12:52:41.948Z,7904
2016-04-06T12:53:41.965Z,8292
2016-04-06T12:54:42.030Z,9392
2016-04-06T12:55:42.018Z,8620
2016-04-06T12:56:42.035Z,9096
2016-04-06T12:57:42.086Z,10360
2016-04-06T12:58:42.088Z,8756
2016-04-06T12:59:42.122Z,9604
2016-04-06T13:00:42.109Z,8008
2016-04-06T13:01:42.159Z,7820
2016-04-06T13:02:42.177Z,7468
2016-04-06T13:03:42.210Z,7204
2016-04-06T13:04:42.214Z,6852
2016-04-06T13:05:42.232Z,6600
2016-04-06T13:06:42.266Z,6332
2016-04-06T13:07:42.315Z,6084
2016-04-06T13:08:42.319Z,5980
2016-04-06T13:09:42.336Z,5832
2016-04-06T13:10:42.354Z,5624
2016-04-06T13:11:41.529Z,5396
2016-04-06T13:12:42.397Z,5340
2016-04-06T13:13:42.416Z,5508
2016-04-06T13:14:42.449Z,5676
2016-04-06T13:15:42.452Z,5964
2016-04-06T13:16:42.486Z,8128
2016-04-06T13:17:42.505Z,6352
2016-04-06T13:18:42.523Z,6736
2016-04-06T13:19:42.526Z,7012
2016-04-06T13:20:42.559Z,7380
2016-04-06T13:21:42.593Z,11432
2016-04-06T13:22:42.596Z,11100
2016-04-06T13:23:42.474Z,10312
2016-04-06T13:24:42.648Z,12100
2016-04-06T13:25:42.667Z,11556
2016-04-06T13:26:42.701Z,11920
2016-04-06T13:27:42.703Z,10256
2016-04-06T13:28:42.737Z,11000
2016-04-06T13:29:42.756Z,10376
2016-04-06T13:30:42.790Z,7564
2016-04-06T13:31:43.276Z,5708
2016-04-06T13:32:42.811Z,5820
2016-04-06T13:33:42.845Z,6384
2016-04-06T13:34:42.878Z,6816
2016-04-06T13:35:42.897Z,10652
2016-04-06T13:36:42.978Z,7604
2016-04-06T13:37:42.949Z,7436
2016-04-06T13:38:42.967Z,11436
2016-04-06T13:39:42.986Z,11344
2016-04-06T13:40:43.035Z,12104
2016-04-06T13:41:43.053Z,12416
2016-04-06T13:42:43.088Z,8236
2016-04-06T13:43:43.058Z,8116
2016-04-06T13:44:43.093Z,8332
2016-04-06T13:45:43.127Z,8820
2016-04-06T13:46:43.145Z,8592
2016-04-06T13:47:43.147Z,8160
2016-04-06T13:48:43.182Z,8004